createdAt,value
2023-04-24T00:00:46.405Z,18.70
2023-04-24T00:03:15.097Z,18.70
2023-04-24T00:05:47.857Z,18.70
2023-04-24T00:08:15.702Z,18.70
2023-04-24T00:10:43.647Z,18.70
2023-04-24T00:13:16.755Z,18.70
2023-04-24T00:15:44.625Z,18.70
2023-04-24T00:18:17.146Z,18.60
2023-04-24T00:20:45.578Z,18.60
2023-04-24T00:23:17.601Z,18.60
2023-04-24T00:25:45.532Z,18.60
2023-04-24T00:28:16.397Z,18.60
2023-04-24T00:30:44.273Z,18.60
2023-04-24T00:33:20.211Z,18.60
2023-04-24T00:35:51.296Z,18.60
2023-04-24T00:38:47.168Z,18.60
2023-04-24T00:41:21.864Z,18.60
2023-04-24T00:43:49.945Z,18.60
2023-04-24T00:46:18.778Z,18.60
2023-04-24T00:48:46.730Z,18.60
2023-04-24T00:51:16.875Z,18.60
2023-04-24T00:53:48.895Z,18.60
2023-04-24T00:56:25.253Z,18.60
2023-04-24T00:58:53.318Z,18.60
2023-04-24T01:01:22.770Z,18.50
2023-04-24T01:03:53.093Z,18.50
2023-04-24T01:06:22.311Z,18.50
2023-04-24T01:08:52.073Z,18.60
2023-04-24T01:11:20.662Z,18.50
2023-04-24T01:13:55.024Z,18.50
2023-04-24T01:16:28.695Z,18.50
2023-04-24T01:19:09.459Z,18.50
2023-04-24T01:21:39.296Z,18.50
2023-04-24T01:24:11.175Z,18.50
2023-04-24T01:26:45.530Z,18.60
2023-04-24T01:29:16.540Z,18.50
2023-04-24T01:31:45.507Z,18.50
2023-04-24T01:34:13.781Z,18.50
2023-04-24T01:36:43.508Z,18.50
2023-04-24T01:39:16.630Z,18.50
2023-04-24T01:41:46.736Z,18.50
2023-04-24T01:44:14.651Z,18.50
2023-04-24T01:46:43.115Z,18.40
2023-04-24T01:49:11.101Z,18.40
2023-04-24T01:51:45.541Z,18.40
2023-04-24T01:54:17.753Z,18.40
2023-04-24T01:56:45.990Z,18.30
2023-04-24T01:59:14.268Z,18.30
2023-04-24T02:01:54.001Z,18.30
2023-04-24T02:04:24.773Z,18.20
2023-04-24T02:07:14.415Z,18.20
2023-04-24T02:09:43.947Z,18.20
2023-04-24T02:12:14.832Z,18.30
2023-04-24T02:14:43.283Z,18.30
2023-04-24T02:17:16.432Z,18.20
2023-04-24T02:19:53.243Z,18.20
2023-04-24T02:22:30.752Z,18.20
2023-04-24T02:25:13.568Z,18.20
2023-04-24T02:27:44.192Z,18.30
2023-04-24T02:30:18.260Z,18.20
2023-04-24T02:32:48.914Z,18.20
2023-04-24T02:35:17.022Z,18.20
2023-04-24T02:37:44.912Z,18.30
2023-04-24T02:40:20.065Z,18.20
2023-04-24T02:42:50.339Z,18.20
2023-04-24T02:45:18.316Z,18.20
2023-04-24T02:47:48.647Z,18.20
2023-04-24T02:50:16.574Z,18.20
2023-04-24T02:52:44.819Z,18.20
2023-04-24T02:55:12.856Z,18.10
2023-04-24T02:57:45.075Z,18.10
2023-04-24T03:00:14.369Z,18.10
2023-04-24T03:02:42.357Z,18.10
2023-04-24T03:05:12.874Z,18.10
2023-04-24T03:07:40.719Z,18.20
2023-04-24T03:10:14.407Z,18.20
2023-04-24T03:12:46.618Z,18.20
2023-04-24T03:15:14.492Z,18.20
2023-04-24T03:17:42.444Z,18.20
2023-04-24T03:20:13.247Z,18.20
2023-04-24T03:22:41.119Z,18.20
2023-04-24T03:25:12.034Z,18.20
2023-04-24T03:27:44.636Z,18.10
2023-04-24T03:30:14.202Z,18.10
2023-04-24T03:32:42.099Z,18.10
2023-04-24T03:35:10.627Z,18.10
2023-04-24T03:37:41.444Z,18.00
2023-04-24T03:40:10.762Z,18.00
2023-04-24T03:42:39.434Z,18.00
2023-04-24T03:45:12.938Z,18.00
2023-04-24T03:47:40.896Z,18.00
2023-04-24T03:50:14.305Z,18.00
2023-04-24T03:52:42.187Z,18.00
2023-04-24T03:55:20.708Z,18.00
2023-04-24T03:57:48.573Z,18.00
2023-04-24T04:00:19.510Z,18.00
2023-04-24T04:02:47.465Z,18.00
2023-04-24T04:05:15.535Z,18.00
2023-04-24T04:07:43.503Z,18.00
2023-04-24T04:10:14.217Z,18.00
2023-04-24T04:12:42.055Z,18.00
2023-04-24T04:15:10.350Z,18.00
2023-04-24T04:17:39.963Z,18.00
2023-04-24T04:20:11.649Z,18.00
2023-04-24T04:22:44.526Z,18.10
2023-04-24T04:25:14.220Z,18.10
2023-04-24T04:27:48.724Z,18.20
2023-04-24T04:30:17.089Z,18.30
2023-04-24T04:32:46.386Z,18.30
2023-04-24T04:35:14.289Z,18.40
2023-04-24T04:37:42.141Z,18.40
2023-04-24T04:40:15.895Z,18.50
2023-04-24T04:42:46.790Z,18.60
2023-04-24T04:45:18.636Z,18.50
2023-04-24T04:47:48.083Z,18.60
2023-04-24T04:50:20.422Z,18.60
2023-04-24T04:52:48.297Z,18.60
2023-04-24T04:55:23.494Z,18.60
2023-04-24T04:57:51.346Z,18.60
2023-04-24T05:00:19.381Z,18.70
2023-04-24T05:02:51.747Z,18.60
2023-04-24T05:05:32.030Z,18.60
2023-04-24T05:08:02.084Z,18.60
2023-04-24T05:10:32.969Z,18.60
2023-04-24T05:13:03.236Z,18.60
2023-04-24T05:15:31.220Z,18.50
2023-04-24T05:18:00.546Z,18.50
2023-04-24T05:20:30.536Z,18.60
2023-04-24T05:22:58.381Z,18.60
2023-04-24T05:25:26.249Z,18.60
2023-04-24T05:27:57.024Z,18.50
2023-04-24T05:30:24.974Z,18.50
2023-04-24T05:32:52.862Z,18.50
2023-04-24T05:35:22.309Z,18.50
2023-04-24T05:37:56.109Z,18.50
2023-04-24T05:40:26.179Z,18.50
2023-04-24T05:42:54.005Z,18.50
2023-04-24T05:45:24.006Z,18.50
2023-04-24T05:48:00.798Z,18.50
2023-04-24T05:50:30.055Z,18.50
2023-04-24T05:53:02.824Z,18.50
2023-04-24T05:55:32.260Z,18.50
2023-04-24T05:58:00.236Z,18.50
2023-04-24T06:00:29.608Z,18.50
2023-04-24T06:02:57.770Z,18.50
2023-04-24T06:05:26.210Z,18.50
2023-04-24T06:07:55.812Z,18.50
2023-04-24T06:10:23.982Z,18.50
2023-04-24T06:12:57.148Z,18.20
2023-04-24T06:15:25.003Z,17.90
2023-04-24T06:17:53.021Z,17.90
2023-04-24T06:20:21.498Z,18.00
2023-04-24T06:22:49.383Z,18.10
2023-04-24T06:25:18.942Z,18.20
2023-04-24T06:27:47.038Z,18.30
2023-04-24T06:30:17.959Z,18.30
2023-04-24T06:32:45.985Z,18.30
2023-04-24T06:35:17.241Z,18.30
2023-04-24T06:37:51.263Z,18.30
2023-04-24T06:40:23.397Z,18.40
2023-04-24T06:42:54.055Z,18.30
2023-04-24T06:45:27.215Z,18.30
2023-04-24T06:47:58.352Z,18.30
2023-04-24T06:50:26.614Z,18.30
2023-04-24T06:52:54.468Z,18.30
2023-04-24T06:55:23.686Z,18.30
2023-04-24T06:57:57.702Z,18.30
2023-04-24T07:00:25.783Z,18.30
2023-04-24T07:02:59.654Z,18.30
2023-04-24T07:05:27.632Z,18.30
2023-04-24T07:07:55.536Z,18.30
2023-04-24T07:10:25.362Z,18.30
2023-04-24T07:12:53.227Z,18.30
2023-04-24T07:15:24.256Z,18.30
2023-04-24T07:17:55.185Z,18.30
2023-04-24T07:20:23.187Z,18.30
2023-04-24T07:22:57.222Z,18.30
2023-04-24T07:25:26.457Z,18.30
2023-04-24T07:28:00.471Z,18.30
2023-04-24T07:30:29.794Z,18.30
2023-04-24T07:33:00.438Z,18.30
2023-04-24T07:35:28.786Z,18.30
2023-04-24T07:37:56.791Z,18.30
2023-04-24T07:40:26.212Z,18.10
2023-04-24T07:43:01.530Z,18.00
2023-04-24T07:45:29.886Z,18.00
2023-04-24T07:48:00.935Z,18.10
2023-04-24T07:50:31.881Z,18.10
2023-04-24T07:52:59.862Z,18.10
2023-04-24T07:55:29.108Z,18.10
2023-04-24T07:57:56.985Z,18.10
2023-04-24T08:00:27.925Z,18.10
2023-04-24T08:03:05.001Z,18.20
2023-04-24T08:05:40.997Z,18.20
2023-04-24T08:08:11.898Z,18.20
2023-04-24T08:10:48.751Z,18.20
2023-04-24T08:13:19.435Z,18.00
2023-04-24T08:15:53.190Z,17.50
2023-04-24T08:18:21.147Z,17.40
2023-04-24T08:20:49.033Z,17.40
2023-04-24T08:23:16.959Z,17.50
2023-04-24T08:25:46.189Z,17.60
2023-04-24T08:28:20.913Z,17.70
2023-04-24T08:30:49.062Z,17.80
2023-04-24T08:33:16.959Z,17.80
2023-04-24T08:35:44.836Z,17.70
2023-04-24T08:38:12.685Z,17.80
2023-04-24T08:40:40.727Z,17.40
2023-04-24T08:43:10.213Z,17.00
2023-04-24T08:45:39.422Z,17.10
2023-04-24T08:48:16.457Z,17.30
2023-04-24T08:50:58.768Z,17.40
2023-04-24T08:53:29.802Z,17.60
2023-04-24T08:56:04.380Z,17.70
2023-04-24T08:58:33.834Z,17.70
2023-04-24T09:01:06.566Z,17.80
2023-04-24T09:03:36.668Z,17.80
2023-04-24T09:06:13.887Z,17.80
2023-04-24T09:08:45.700Z,17.90
2023-04-24T09:11:14.038Z,17.90
2023-04-24T09:13:44.688Z,17.90
2023-04-24T09:16:16.390Z,17.90
2023-04-24T09:18:44.334Z,17.90
2023-04-24T09:21:18.286Z,17.90
2023-04-24T09:23:46.407Z,17.90
2023-04-24T09:26:21.229Z,17.90
2023-04-24T09:28:50.426Z,17.90
2023-04-24T09:31:23.033Z,17.90
2023-04-24T09:33:58.540Z,17.60
2023-04-24T09:36:33.999Z,17.40
2023-04-24T09:39:02.869Z,17.40
2023-04-24T09:41:37.571Z,17.50
2023-04-24T09:44:18.500Z,17.70
2023-04-24T09:46:57.189Z,17.50
2023-04-24T09:49:34.189Z,17.40
2023-04-24T09:52:05.681Z,17.50
2023-04-24T09:54:37.646Z,17.60
2023-04-24T09:57:10.204Z,17.60
2023-04-24T09:59:48.040Z,17.30
2023-04-24T10:02:22.443Z,17.30
2023-04-24T10:04:57.590Z,17.40
2023-04-24T10:07:28.874Z,17.50
2023-04-24T10:09:57.106Z,17.50
2023-04-24T10:12:26.144Z,17.50
2023-04-24T10:14:56.116Z,17.50
2023-04-24T10:17:52.994Z,17.60
2023-04-24T10:20:22.994Z,17.60
2023-04-24T10:22:54.758Z,17.60
2023-04-24T10:25:30.661Z,17.40
2023-04-24T10:28:02.784Z,17.20
2023-04-24T10:30:35.894Z,17.20
2023-04-24T10:33:04.885Z,17.10
2023-04-24T10:35:34.533Z,17.00
2023-04-24T10:38:14.002Z,17.00
2023-04-24T10:40:48.130Z,17.00
2023-04-24T10:43:23.568Z,17.00
2023-04-24T10:46:06.949Z,16.90
2023-04-24T10:48:45.743Z,16.90
2023-04-24T10:51:23.891Z,16.80
2023-04-24T10:54:15.445Z,17.10
2023-04-24T10:56:43.377Z,17.20
2023-04-24T10:59:12.269Z,17.20
2023-04-24T11:01:55.149Z,17.30
2023-04-24T11:04:32.237Z,17.20
2023-04-24T11:07:00.468Z,17.10
2023-04-24T11:09:37.295Z,17.10
2023-04-24T11:12:10.194Z,17.30
2023-04-24T11:15:03.992Z,17.00
2023-04-24T11:17:34.614Z,16.90
2023-04-24T11:20:15.382Z,16.80
2023-04-24T11:22:47.235Z,16.80
2023-04-24T11:25:17.991Z,16.80
2023-04-24T11:27:47.290Z,16.90
2023-04-24T11:30:20.556Z,17.00
2023-04-24T11:32:53.405Z,16.90
2023-04-24T11:35:25.695Z,16.80
2023-04-24T11:40:37.276Z,16.90
2023-04-24T11:43:07.614Z,16.80
2023-04-24T11:45:38.682Z,16.80
2023-04-24T11:48:07.925Z,16.60
2023-04-24T11:50:36.135Z,16.50
2023-04-24T11:53:04.128Z,16.70
2023-04-24T11:55:32.059Z,16.70
2023-04-24T11:58:01.935Z,16.70
2023-04-24T12:00:40.762Z,16.60
2023-04-24T12:03:16.431Z,16.60
2023-04-24T12:05:50.363Z,16.60
2023-04-24T12:08:30.254Z,16.50
2023-04-24T12:10:58.537Z,16.50
2023-04-24T12:13:29.327Z,16.50
2023-04-24T12:15:59.008Z,16.50
2023-04-24T12:18:28.525Z,16.80
2023-04-24T12:21:01.354Z,16.80
2023-04-24T12:23:38.732Z,16.90
2023-04-24T12:26:07.327Z,17.00
2023-04-24T12:28:39.214Z,17.00
2023-04-24T12:31:09.302Z,16.80
2023-04-24T12:33:41.542Z,16.90
2023-04-24T12:36:13.166Z,16.90
2023-04-24T12:38:47.419Z,16.90
2023-04-24T12:41:24.001Z,17.00
2023-04-24T12:43:56.313Z,16.70
2023-04-24T12:46:24.553Z,16.70
2023-04-24T12:48:56.631Z,16.80
2023-04-24T12:51:26.034Z,16.70
2023-04-24T12:53:56.727Z,16.90
2023-04-24T12:56:27.721Z,16.90
2023-04-24T12:58:55.588Z,16.70
2023-04-24T13:01:29.577Z,16.40
2023-04-24T13:03:58.921Z,16.50
2023-04-24T13:06:27.368Z,16.60
2023-04-24T13:08:55.791Z,16.80
2023-04-24T13:11:23.925Z,16.90
2023-04-24T13:13:53.182Z,16.80
2023-04-24T13:16:24.073Z,16.70
2023-04-24T13:18:52.004Z,16.90
2023-04-24T13:21:21.219Z,17.00
2023-04-24T13:23:49.116Z,17.00
2023-04-24T13:26:17.032Z,17.30
2023-04-24T13:28:44.893Z,17.50
2023-04-24T13:31:15.800Z,17.40
2023-04-24T13:33:44.078Z,17.40
2023-04-24T13:36:12.302Z,17.10
2023-04-24T13:38:41.549Z,17.20
2023-04-24T13:41:15.275Z,17.20
2023-04-24T13:43:44.487Z,17.40
2023-04-24T13:46:12.589Z,17.50
2023-04-24T13:48:47.985Z,17.50
2023-04-24T13:51:15.853Z,17.30
2023-04-24T13:53:47.330Z,17.20
2023-04-24T13:56:15.394Z,17.30
2023-04-24T13:58:49.806Z,17.40
2023-04-24T14:01:20.132Z,17.30
2023-04-24T14:03:48.593Z,17.40
2023-04-24T14:06:16.792Z,17.40
2023-04-24T14:08:46.037Z,17.10
2023-04-24T14:11:14.112Z,17.10
2023-04-24T14:13:43.779Z,17.00
2023-04-24T14:16:17.568Z,17.00
2023-04-24T14:18:54.199Z,17.10
2023-04-24T14:21:22.088Z,17.10
2023-04-24T14:23:53.553Z,17.20
2023-04-24T14:26:21.806Z,17.00
2023-04-24T14:28:58.013Z,16.90
2023-04-24T14:31:31.840Z,16.80
2023-04-24T14:34:02.154Z,16.90
2023-04-24T14:36:30.072Z,17.10
2023-04-24T14:39:04.331Z,17.10
2023-04-24T14:41:32.464Z,17.10
2023-04-24T14:44:03.342Z,17.20
2023-04-24T14:46:32.016Z,17.10
2023-04-24T14:49:02.976Z,16.90
2023-04-24T14:51:31.288Z,16.70
2023-04-24T14:54:03.926Z,16.40
2023-04-24T14:56:41.729Z,16.00
2023-04-24T14:59:12.757Z,15.70
2023-04-24T15:01:43.123Z,15.60
2023-04-24T15:04:16.490Z,15.80
2023-04-24T15:06:44.450Z,15.90
2023-04-24T15:09:13.664Z,16.10
2023-04-24T15:11:44.579Z,16.30
2023-04-24T15:14:12.739Z,16.40
2023-04-24T15:16:41.085Z,16.40
2023-04-24T15:19:16.369Z,16.50
2023-04-24T15:21:47.084Z,16.60
2023-04-24T15:24:19.418Z,16.60
2023-04-24T15:26:57.418Z,16.70
2023-04-24T15:29:30.688Z,16.90
2023-04-24T15:31:58.598Z,16.90
2023-04-24T15:34:28.933Z,16.80
2023-04-24T15:36:59.876Z,16.50
2023-04-24T15:39:32.209Z,16.60
2023-04-24T15:42:03.468Z,16.90
2023-04-24T15:44:31.339Z,16.90
2023-04-24T15:47:03.234Z,16.90
2023-04-24T15:49:34.253Z,16.80
2023-04-24T15:52:14.932Z,16.80
2023-04-24T15:54:44.296Z,16.90
2023-04-24T15:57:14.601Z,16.70
2023-04-24T15:59:42.570Z,16.90
2023-04-24T16:02:11.817Z,16.70
2023-04-24T16:04:45.225Z,16.70
2023-04-24T16:07:20.472Z,16.80
2023-04-24T16:09:49.719Z,17.00
2023-04-24T16:12:17.625Z,16.80
2023-04-24T16:14:45.511Z,16.80
2023-04-24T16:17:13.425Z,17.00
2023-04-24T16:19:41.274Z,17.10
2023-04-24T16:22:23.068Z,17.10
2023-04-24T16:24:52.308Z,17.00
2023-04-24T16:27:26.626Z,17.00
2023-04-24T16:29:55.945Z,17.10
2023-04-24T16:32:30.936Z,17.00
2023-04-24T16:35:04.399Z,16.90
2023-04-24T16:37:36.709Z,17.00
2023-04-24T16:40:12.858Z,17.00
2023-04-24T16:42:41.223Z,16.90
2023-04-24T16:45:17.813Z,16.80
2023-04-24T16:47:45.782Z,16.80
2023-04-24T16:50:13.707Z,16.90
2023-04-24T16:52:41.988Z,16.80
2023-04-24T16:55:11.556Z,16.80
2023-04-24T16:57:42.467Z,16.70
2023-04-24T17:00:25.714Z,16.60
2023-04-24T17:02:59.859Z,16.50
2023-04-24T17:05:37.341Z,16.50
2023-04-24T17:08:10.797Z,16.50
2023-04-24T17:10:41.106Z,16.40
2023-04-24T17:13:09.489Z,16.60
2023-04-24T17:15:51.473Z,16.50
2023-04-24T17:18:22.829Z,16.60
2023-04-24T17:20:51.537Z,16.60
2023-04-24T17:23:22.365Z,16.70
2023-04-24T17:25:54.104Z,16.70
2023-04-24T17:28:27.867Z,16.70
2023-04-24T17:30:58.896Z,16.70
2023-04-24T17:33:42.043Z,16.90
2023-04-24T17:36:13.099Z,16.70
2023-04-24T17:38:40.981Z,16.70
2023-04-24T17:41:16.508Z,16.50
2023-04-24T17:43:47.165Z,16.60
2023-04-24T17:46:15.160Z,16.60
2023-04-24T17:48:43.116Z,16.70
2023-04-24T17:51:14.126Z,16.60
2023-04-24T17:53:42.020Z,16.40
2023-04-24T17:56:14.035Z,16.20
2023-04-24T17:58:44.843Z,16.00
2023-04-24T18:01:18.893Z,15.80
2023-04-24T18:03:46.979Z,15.90
2023-04-24T18:06:18.756Z,16.00
2023-04-24T18:08:46.806Z,16.20
2023-04-24T18:11:25.775Z,16.30
2023-04-24T18:13:56.785Z,16.40
2023-04-24T18:16:25.836Z,16.70
2023-04-24T18:18:56.921Z,16.70
2023-04-24T18:21:25.072Z,16.60
2023-04-24T18:24:00.183Z,16.60
2023-04-24T18:26:29.584Z,16.50
2023-04-24T18:29:03.570Z,16.20
2023-04-24T18:31:32.471Z,16.00
2023-04-24T18:34:00.484Z,16.00
2023-04-24T18:36:31.230Z,15.60
2023-04-24T18:38:59.108Z,15.80
2023-04-24T18:41:38.667Z,15.70
2023-04-24T18:44:12.406Z,15.60
2023-04-24T18:46:41.511Z,15.80
2023-04-24T18:49:17.366Z,16.10
2023-04-24T18:51:54.007Z,16.20
2023-04-24T18:54:22.584Z,16.40
2023-04-24T18:57:36.208Z,16.10
2023-04-24T19:00:19.873Z,16.10
2023-04-24T19:02:50.624Z,16.00
2023-04-24T19:05:21.569Z,15.80
2023-04-24T19:08:12.921Z,15.80
2023-04-24T19:10:40.851Z,15.70
2023-04-24T19:13:21.158Z,15.60
2023-04-24T19:15:54.023Z,15.60
2023-04-24T19:18:31.226Z,15.40
2023-04-24T19:21:02.289Z,15.20
2023-04-24T19:23:36.375Z,15.20
2023-04-24T19:26:04.542Z,15.20
2023-04-24T19:28:34.014Z,15.20
2023-04-24T19:31:07.943Z,14.90
2023-04-24T19:33:41.707Z,14.90
2023-04-24T19:36:12.783Z,14.70
2023-04-24T19:38:40.793Z,14.70
2023-04-24T19:41:12.243Z,14.90
2023-04-24T19:43:41.460Z,15.00
2023-04-24T19:46:09.453Z,15.10
2023-04-24T19:48:37.972Z,14.90
2023-04-24T19:51:08.620Z,14.90
2023-04-24T19:53:36.511Z,14.70
2023-04-24T19:56:04.430Z,15.10
2023-04-24T19:58:32.366Z,14.80
2023-04-24T20:01:01.825Z,14.70
2023-04-24T20:03:38.538Z,14.40
2023-04-24T20:06:06.715Z,14.40
2023-04-24T20:08:38.790Z,14.10
2023-04-24T20:11:07.037Z,13.90
2023-04-24T20:13:34.972Z,13.60
2023-04-24T20:16:15.262Z,13.70
2023-04-24T20:18:44.677Z,13.40
2023-04-24T20:21:15.725Z,13.20
2023-04-24T20:23:43.612Z,13.10
2023-04-24T20:26:14.461Z,13.40
2023-04-24T20:28:42.306Z,13.30
2023-04-24T20:31:10.308Z,13.20
2023-04-24T20:33:41.470Z,13.20
2023-04-24T20:36:10.258Z,13.20
2023-04-24T20:38:41.252Z,13.60
2023-04-24T20:41:10.284Z,13.50
2023-04-24T20:43:41.240Z,13.60
2023-04-24T20:46:09.165Z,13.80
2023-04-24T20:48:47.385Z,14.00
2023-04-24T20:51:19.475Z,14.30
2023-04-24T20:53:52.677Z,14.20
2023-04-24T20:56:23.390Z,14.60
2023-04-24T20:58:56.793Z,14.50
2023-04-24T21:01:25.134Z,14.60
2023-04-24T21:04:00.605Z,14.60
2023-04-24T21:06:28.508Z,14.60
2023-04-24T21:08:56.439Z,14.90
2023-04-24T21:11:24.327Z,14.60
2023-04-24T21:13:52.192Z,14.50
2023-04-24T21:16:30.204Z,14.20
2023-04-24T21:19:02.391Z,14.10
2023-04-24T21:21:30.675Z,13.80
2023-04-24T21:23:58.538Z,14.30
2023-04-24T21:26:26.432Z,14.20
2023-04-24T21:28:54.629Z,14.30
2023-04-24T21:31:22.561Z,14.40
2023-04-24T21:33:50.931Z,14.10
2023-04-24T21:36:23.113Z,14.10
2023-04-24T21:38:53.118Z,14.20
2023-04-24T21:41:21.008Z,14.10
2023-04-24T21:43:55.069Z,14.10
2023-04-24T21:46:26.204Z,14.00
2023-04-24T21:48:54.117Z,13.90
2023-04-24T21:51:26.919Z,14.10
2023-04-24T21:53:54.775Z,14.10
2023-04-24T21:56:25.694Z,14.40
2023-04-24T21:58:54.302Z,14.60
2023-04-24T22:01:28.365Z,14.30
2023-04-24T22:03:56.363Z,14.10
2023-04-24T22:06:36.148Z,14.10
2023-04-24T22:09:04.524Z,14.30
2023-04-24T22:11:38.755Z,14.50
2023-04-24T22:14:07.178Z,14.50
2023-04-24T22:16:38.768Z,14.30
2023-04-24T22:19:09.082Z,14.00
2023-04-24T22:21:38.324Z,14.10
2023-04-24T22:24:06.742Z,13.90
2023-04-24T22:26:34.915Z,13.90
2023-04-24T22:29:04.520Z,13.70
2023-04-24T22:31:38.283Z,13.60
2023-04-24T22:34:06.235Z,13.60
2023-04-24T22:36:36.831Z,13.70
2023-04-24T22:39:06.196Z,13.80
2023-04-24T22:41:34.127Z,14.20
2023-04-24T22:44:14.145Z,14.40
2023-04-24T22:46:48.181Z,14.20
2023-04-24T22:49:16.113Z,14.10
2023-04-24T22:51:48.090Z,14.10
2023-04-24T22:54:20.411Z,13.80
2023-04-24T22:56:50.593Z,13.70
2023-04-24T22:59:18.653Z,13.80
2023-04-24T23:01:52.574Z,14.10
2023-04-24T23:04:27.066Z,14.20
2023-04-24T23:06:57.719Z,14.00
2023-04-24T23:09:26.934Z,13.60
2023-04-24T23:11:54.855Z,13.40
2023-04-24T23:14:24.525Z,13.20
2023-04-24T23:16:52.448Z,12.90
2023-04-24T23:19:20.457Z,12.60
2023-04-24T23:21:48.352Z,12.90
2023-04-24T23:24:19.313Z,13.20
2023-04-24T23:26:54.685Z,13.50
2023-04-24T23:29:23.096Z,14.00
2023-04-24T23:31:54.020Z,14.00
2023-04-24T23:34:21.994Z,14.10
2023-04-24T23:36:52.346Z,14.20
2023-04-24T23:39:20.219Z,14.10
2023-04-24T23:41:49.345Z,14.00
2023-04-24T23:44:18.720Z,14.00
2023-04-24T23:46:46.595Z,13.80
2023-04-24T23:49:14.758Z,13.90
2023-04-24T23:51:48.443Z,13.70
2023-04-24T23:54:22.505Z,13.60
2023-04-24T23:56:51.625Z,13.60
2023-04-24T23:59:23.645Z,13.80
